.
WxDataArchive / Data Records for 2012-11-15
2012-11-14 November 2012 2012-11-16

Data Records for Thursday, 15 November 2012

Time	Temp	Chill	HIndex	Humid	Dewpt	 Wind 	HiWind	WindDir	Rain 	Barom 
-----	----	-----	------	-----	-----	------	------	-------	-----	----- 
00:00	27.9	27.9	27.9	85	24.0	0	0	---	0.00	30.438 
00:05	27.9	27.9	27.9	85	24.0	0	0	---	0.00	30.438 
00:10	27.6	27.6	27.6	86	24.0	0	0	---	0.00	30.438 
00:15	27.6	27.6	27.6	86	24.0	0	0	---	0.00	30.436 
00:20	27.5	27.5	27.5	86	23.9	0	0	---	0.00	30.436 
00:25	27.3	27.3	27.3	86	23.7	0	0	---	0.00	30.436 
00:30	27.2	27.2	27.2	86	23.6	0	0	---	0.00	30.432 
00:35	26.9	26.9	26.9	87	23.6	0	0	---	0.00	30.432 
00:40	26.7	26.7	26.7	87	23.4	0	0	---	0.00	30.432 
00:45	26.7	26.7	26.7	87	23.4	0	0	---	0.00	30.431 
00:50	26.6	26.6	26.6	87	23.3	0	0	---	0.00	30.431 
00:55	26.6	26.6	26.6	87	23.3	0	0	---	0.00	30.431 
01:00	26.4	26.4	26.4	88	23.3	0	0	---	0.00	30.432 
01:05	26.3	26.3	26.3	87	23.0	0	0	---	0.00	30.432 
01:10	26.0	26.0	26.0	88	22.9	0	0	---	0.00	30.432 
01:15	25.8	25.8	25.8	88	22.7	0	0	---	0.00	30.424 
01:20	25.7	25.7	25.7	88	22.6	0	0	---	0.00	30.424 
01:25	25.7	25.7	25.7	88	22.6	0	0	---	0.00	30.424 
01:30	25.7	25.7	25.7	88	22.6	0	0	---	0.00	30.421 
01:35	25.6	25.6	25.6	88	22.5	0	0	---	0.00	30.421 
01:40	25.4	25.4	25.4	88	22.4	0	0	---	0.00	30.421 
01:45	25.4	25.4	25.4	88	22.4	0	0	---	0.00	30.411 
01:50	25.3	25.3	25.3	88	22.3	0	0	---	0.00	30.411 
01:55	25.1	25.1	25.1	88	22.1	0	0	---	0.00	30.411 
02:00	25.1	25.1	25.1	88	22.1	0	0	---	0.00	30.412 
02:05	25.0	25.0	25.0	88	22.0	0	0	---	0.00	30.412 
02:10	25.0	25.0	25.0	89	22.2	0	0	---	0.00	30.412 
02:15	24.8	24.8	24.8	89	22.0	0	0	---	0.00	30.406 
02:20	24.8	24.8	24.8	89	22.0	0	0	---	0.00	30.406 
02:25	24.7	24.7	24.7	89	21.9	0	0	---	0.00	30.406 
02:30	24.7	24.7	24.7	89	21.9	0	0	---	0.00	30.404 
02:35	24.7	24.7	24.7	89	21.9	0	0	---	0.00	30.404 
02:40	24.5	24.5	24.5	89	21.7	0	0	---	0.00	30.404 
02:45	24.4	24.4	24.4	89	21.6	0	0	---	0.00	30.404 
02:50	24.2	24.2	24.2	89	21.4	0	0	---	0.00	30.404 
02:55	24.2	24.2	24.2	89	21.4	0	0	---	0.00	30.404 
03:00	24.1	24.1	24.1	89	21.3	0	0	---	0.00	30.402 
03:05	23.9	23.9	23.9	89	21.1	0	0	---	0.00	30.402 
03:10	23.9	23.9	23.9	89	21.1	0	0	---	0.00	30.402 
03:15	23.9	23.9	23.9	89	21.1	0	0	---	0.00	30.395 
03:20	23.8	23.8	23.8	89	21.0	0	0	---	0.00	30.395 
03:25	23.8	23.8	23.8	89	21.0	0	0	---	0.00	30.395 
03:30	23.6	23.6	23.6	90	21.1	0	0	---	0.00	30.402 
03:35	23.6	23.6	23.6	90	21.1	0	0	---	0.00	30.402 
03:40	23.6	23.6	23.6	90	21.1	0	0	---	0.00	30.402 
03:45	23.8	23.8	23.8	90	21.3	0	0	---	0.00	30.400 
03:50	23.8	23.8	23.8	90	21.3	0	0	---	0.00	30.400 
03:55	23.8	23.8	23.8	90	21.3	0	0	---	0.00	30.400 
04:00	23.6	23.6	23.6	90	21.1	0	0	---	0.00	30.395 
04:05	23.6	23.6	23.6	90	21.1	0	0	---	0.00	30.395 
04:10	23.6	23.6	23.6	90	21.1	0	0	---	0.00	30.395 
04:15	23.5	23.5	23.5	90	21.0	0	0	---	0.00	30.391 
04:20	23.5	23.5	23.5	90	21.0	0	0	---	0.00	30.391 
04:25	23.3	23.3	23.3	90	20.8	0	0	---	0.00	30.391 
04:30	23.2	23.2	23.2	90	20.7	0	0	---	0.00	30.391 
04:35	23.2	23.2	23.2	90	20.7	0	0	---	0.00	30.391 
04:40	23.2	23.2	23.2	90	20.7	0	0	---	0.00	30.391 
04:45	23.2	23.2	23.2	90	20.7	0	0	---	0.00	30.395 
04:50	23.2	23.2	23.2	90	20.7	0	0	---	0.00	30.395 
04:55	23.0	23.0	23.0	90	20.5	0	0	---	0.00	30.395 
05:00	22.9	22.9	22.9	90	20.4	0	0	---	0.00	30.393 
05:05	22.9	22.9	22.9	90	20.4	0	0	---	0.00	30.393 
05:10	22.7	22.7	22.7	90	20.2	0	0	---	0.00	30.393 
05:15	22.7	22.7	22.7	90	20.2	0	0	---	0.00	30.394 
05:20	22.7	22.7	22.7	90	20.2	0	0	---	0.00	30.394 
05:25	22.5	22.5	22.5	90	20.0	0	0	---	0.00	30.394 
05:30	22.4	22.4	22.4	90	19.9	0	0	---	0.00	30.398 
05:35	22.4	22.4	22.4	90	19.9	0	0	---	0.00	30.398 
05:40	22.4	22.4	22.4	90	19.9	0	0	---	0.00	30.398 
05:45	22.2	22.2	22.2	90	19.7	0	0	---	0.00	30.400 
05:50	22.2	22.2	22.2	90	19.7	0	0	---	0.00	30.400 
05:55	22.2	22.2	22.2	90	19.7	0	0	---	0.00	30.400 
06:00	22.2	22.2	22.2	90	19.7	0	0	---	0.00	30.397 
06:05	22.2	22.2	22.2	91	20.0	0	0	---	0.00	30.397 
06:10	22.2	22.2	22.2	91	20.0	0	0	---	0.00	30.397 
06:15	22.2	22.2	22.2	91	20.0	0	0	---	0.00	30.393 
06:20	22.1	22.1	22.1	91	19.9	0	0	---	0.00	30.393 
06:25	22.1	22.1	22.1	91	19.9	0	0	---	0.00	30.393 
06:30	22.1	22.1	22.1	91	19.9	0	0	---	0.00	30.393 
06:35	22.1	22.1	22.1	91	19.9	0	0	---	0.00	30.393 
06:40	21.9	21.9	21.9	91	19.7	0	0	---	0.00	30.393 
06:45	21.9	21.9	21.9	91	19.7	0	0	---	0.00	30.396 
06:50	21.8	21.8	21.8	90	19.3	0	0	---	0.00	30.396 
06:55	21.8	21.8	21.8	90	19.3	0	0	---	0.00	30.396 
07:00	21.6	21.6	21.6	91	19.4	0	0	---	0.00	30.404 
07:05	21.6	21.6	21.6	91	19.4	0	0	---	0.00	30.404 
07:10	21.6	21.6	21.6	91	19.4	0	0	---	0.00	30.404 
07:15	21.6	21.6	21.6	91	19.4	0	0	---	0.00	30.409 
07:20	21.6	21.6	21.6	91	19.4	0	0	---	0.00	30.409 
07:25	21.6	21.6	21.6	91	19.4	0	0	---	0.00	30.409 
07:30	21.6	21.6	21.6	91	19.4	0	0	---	0.00	30.410 
07:35	21.4	21.4	21.4	91	19.2	0	0	---	0.00	30.410 
07:40	21.6	21.6	21.6	91	19.4	0	0	---	0.00	30.410 
07:45	21.6	21.6	21.6	91	19.4	0	0	---	0.00	30.414 
07:50	21.6	21.6	21.6	91	19.4	0	0	---	0.00	30.414 
07:55	21.8	21.8	21.8	91	19.6	0	0	---	0.00	30.414 
08:00	21.9	21.9	21.9	91	19.7	0	0	---	0.00	30.422 
08:05	22.1	22.1	22.1	91	19.9	0	0	---	0.00	30.422 
08:10	22.5	22.5	22.5	92	20.5	0	0	---	0.00	30.422 
08:15	23.6	23.6	23.6	93	21.9	0	0	---	0.00	30.421 
08:20	25.1	25.1	25.1	93	23.4	0	0	---	0.00	30.421 
08:25	26.0	26.0	26.0	93	24.3	0	0	---	0.00	30.421 
08:30	26.1	26.1	26.1	93	24.4	0	0	---	0.00	30.424 
08:35	26.3	26.3	26.3	92	24.3	0	0	---	0.00	30.424 
08:40	26.4	26.4	26.4	92	24.4	0	0	---	0.00	30.424 
08:45	26.9	26.9	26.9	92	24.9	0	0	---	0.00	30.430 
08:50	27.3	27.3	27.3	92	25.3	0	0	---	0.00	30.430 
08:55	27.8	27.8	27.8	93	26.0	0	0	---	0.00	30.430 
09:00	28.4	28.4	28.4	93	26.6	0	0	---	0.00	30.433 
09:05	29.1	29.1	29.1	93	27.3	0	0	---	0.00	30.433 
09:10	30.0	30.0	30.0	94	28.5	0	0	---	0.00	30.433 
09:15	30.6	30.6	30.6	93	28.8	0	0	---	0.00	30.433 
09:20	30.9	30.9	30.9	93	29.1	0	0	---	0.00	30.433 
09:25	31.6	31.6	31.6	93	29.8	1	2	90	0.00	30.433 
09:30	32.1	32.1	32.1	91	29.8	0	1	90	0.00	30.424 
09:35	32.5	32.5	32.5	89	29.6	0	2	90	0.00	30.424 
09:40	32.7	32.7	32.7	88	29.5	0	1	90	0.00	30.424 
09:45	32.8	32.8	32.8	87	29.4	1	2	90	0.00	30.420 
09:50	32.9	32.9	32.9	87	29.5	0	1	90	0.00	30.420 
09:55	33.2	33.2	33.2	86	29.5	0	1	90	0.00	30.420 
10:00	33.5	33.5	33.5	86	29.8	0	1	90	0.00	30.418 
10:05	34.0	34.0	34.0	85	30.0	0	2	90	0.00	30.418 
10:10	34.3	34.3	34.3	84	30.0	0	2	158	0.00	30.418 
10:15	34.7	34.7	34.7	84	30.4	0	1	90	0.00	30.420 
10:20	35.2	35.2	35.2	83	30.6	0	2	90	0.00	30.420 
10:25	35.5	35.5	35.5	80	30.0	0	3	90	0.00	30.420 
10:30	35.8	35.8	35.8	78	29.6	0	3	90	0.00	30.422 
10:35	36.0	36.0	36.0	77	29.5	0	3	90	0.00	30.422 
10:40	36.5	36.5	36.5	74	29.0	1	3	90	0.00	30.422 
10:45	36.6	36.6	36.6	73	28.8	0	3	90	0.00	30.420 
10:50	36.9	36.9	36.9	70	28.0	0	2	90	0.00	30.420 
10:55	37.2	37.2	37.2	69	28.0	0	4	90	0.00	30.420 
11:00	37.6	37.6	37.6	69	28.4	1	3	90	0.00	30.416 
11:05	37.9	37.9	37.9	66	27.6	1	4	90	0.00	30.416 
11:10	38.2	38.2	38.2	67	28.2	0	2	90	0.00	30.416 
11:15	38.5	38.5	38.5	65	27.8	1	3	90	0.00	30.415 
11:20	38.6	38.6	38.6	65	27.9	1	3	90	0.00	30.415 
11:25	38.9	38.9	38.9	66	28.5	1	4	90	0.00	30.415 
11:30	39.1	39.1	39.1	64	28.0	1	4	90	0.00	30.414 
11:35	39.3	39.3	39.3	65	28.5	0	2	90	0.00	30.414 
11:40	39.2	39.2	39.2	64	28.1	1	4	90	0.00	30.414 
11:45	39.3	39.3	39.3	65	28.5	0	2	90	0.00	30.406 
11:50	39.5	39.5	39.5	65	28.7	0	2	90	0.00	30.406 
11:55	39.5	39.5	39.5	65	28.7	1	5	112	0.00	30.406 
12:00	39.6	39.6	39.6	65	28.8	2	5	112	0.00	30.399 
12:05	39.6	39.6	39.6	64	28.4	0	3	112	0.00	30.399 
12:10	39.8	39.8	39.8	64	28.6	0	2	112	0.00	30.399 
12:15	39.9	39.9	39.9	64	28.7	1	2	112	0.00	30.399 
12:20	40.1	40.1	40.1	63	28.5	0	3	112	0.00	30.399 
12:25	40.2	40.2	40.2	63	28.6	0	2	112	0.00	30.399 
12:30	40.2	40.2	40.2	64	29.0	1	3	112	0.00	30.393 
12:35	40.3	40.3	40.3	64	29.1	1	3	112	0.00	30.393 
12:40	40.3	40.3	40.3	63	28.7	0	2	112	0.00	30.393 
12:45	40.5	40.5	40.5	64	29.3	0	1	112	0.00	30.385 
12:50	40.8	40.8	40.8	64	29.6	0	1	112	0.00	30.385 
12:55	41.2	41.2	41.2	63	29.6	0	1	112	0.00	30.385 
13:00	41.5	41.5	41.5	61	29.1	0	2	112	0.00	30.382 
13:05	41.3	41.3	41.3	60	28.5	0	2	112	0.00	30.382 
13:10	41.5	41.5	41.5	62	29.5	1	4	112	0.00	30.382 
13:15	41.6	41.6	41.6	61	29.2	1	3	112	0.00	30.371 
13:20	41.6	41.6	41.6	60	28.8	0	2	112	0.00	30.371 
13:25	41.8	41.8	41.8	61	29.4	0	2	112	0.00	30.371 
13:30	41.9	41.9	41.9	60	29.0	1	4	112	0.00	30.368 
13:35	41.9	41.9	41.9	59	28.6	0	2	112	0.00	30.368 
13:40	41.9	41.9	41.9	58	28.2	1	3	112	0.00	30.368 
13:45	41.8	41.8	41.8	59	28.5	0	2	112	0.00	30.368 
13:50	41.8	41.8	41.8	59	28.5	0	2	112	0.00	30.368 
13:55	41.9	41.9	41.9	59	28.6	0	1	112	0.00	30.368 
14:00	42.2	42.2	42.2	58	28.5	0	1	112	0.00	30.367 
14:05	42.3	42.3	42.3	58	28.6	0	1	112	0.00	30.367 
14:10	42.3	42.3	42.3	57	28.2	0	1	112	0.00	30.367 
14:15	42.6	42.6	42.6	58	28.9	0	1	112	0.00	30.364 
14:20	42.8	42.8	42.8	58	29.1	0	2	112	0.00	30.364 
14:25	42.9	42.9	42.9	59	29.6	1	2	112	0.00	30.364 
14:30	43.1	43.1	43.1	58	29.3	1	3	112	0.00	30.355 
14:35	43.2	43.2	43.2	58	29.4	0	1	112	0.00	30.355 
14:40	43.3	43.3	43.3	58	29.5	0	0	---	0.00	30.355 
14:45	43.5	43.5	43.5	57	29.3	0	1	112	0.00	30.352 
14:50	43.6	43.6	43.6	56	29.0	0	2	112	0.00	30.352 
14:55	43.6	43.6	43.6	56	29.0	0	1	112	0.00	30.352 
15:00	43.8	43.8	43.8	56	29.1	0	1	112	0.00	30.351 
15:05	43.8	43.8	43.8	57	29.6	0	2	112	0.00	30.351 
15:10	43.8	43.8	43.8	56	29.1	0	2	112	0.00	30.351 
15:15	43.9	43.9	43.9	56	29.2	0	0	---	0.00	30.352 
15:20	44.1	44.1	44.1	56	29.4	0	1	112	0.00	30.352 
15:25	43.9	43.9	43.9	56	29.2	0	1	112	0.00	30.352 
15:30	43.8	43.8	43.8	56	29.1	0	2	112	0.00	30.351 
15:35	43.8	43.8	43.8	57	29.6	0	1	112	0.00	30.351 
15:40	43.8	43.8	43.8	57	29.6	0	2	112	0.00	30.351 
15:45	43.6	43.6	43.6	58	29.8	0	3	112	0.00	30.350 
15:50	43.5	43.5	43.5	58	29.7	1	4	112	0.00	30.350 
15:55	43.2	43.2	43.2	58	29.4	1	2	112	0.00	30.350 
16:00	43.1	43.1	43.1	58	29.3	0	2	112	0.00	30.352 
16:05	42.9	42.9	42.9	58	29.2	0	1	112	0.00	30.352 
16:10	42.8	42.8	42.8	58	29.1	0	2	112	0.00	30.352 
16:15	42.8	42.8	42.8	58	29.1	1	3	112	0.00	30.354 
16:20	42.8	42.8	42.8	58	29.1	0	2	112	0.00	30.354 
16:25	42.6	42.6	42.6	59	29.3	0	2	112	0.00	30.354 
16:30	42.5	42.5	42.5	59	29.2	0	2	112	0.00	30.358 
16:35	42.3	42.3	42.3	59	29.0	0	2	112	0.00	30.358 
16:40	42.3	42.3	42.3	59	29.0	0	2	112	0.00	30.358 
16:45	42.2	42.2	42.2	59	28.9	0	1	112	0.00	30.363 
16:50	42.1	42.1	42.1	59	28.8	0	1	112	0.00	30.363 
16:55	41.9	41.9	41.9	60	29.0	0	2	112	0.00	30.363 
17:00	41.8	41.8	41.8	60	28.9	0	0	---	0.00	30.364 
17:05	41.5	41.5	41.5	61	29.1	0	0	---	0.00	30.364 
17:10	41.1	41.1	41.1	62	29.1	0	0	---	0.00	30.364 
17:15	40.6	40.6	40.6	62	28.6	0	0	---	0.00	30.364 
17:20	40.2	40.2	40.2	63	28.6	0	0	---	0.00	30.364 
17:25	39.6	39.6	39.6	63	28.1	0	0	---	0.00	30.364 
17:30	39.2	39.2	39.2	64	28.1	0	0	---	0.00	30.367 
17:35	38.8	38.8	38.8	64	27.7	0	0	---	0.00	30.367 
17:40	38.3	38.3	38.3	65	27.6	0	0	---	0.00	30.367 
17:45	37.9	37.9	37.9	66	27.6	0	0	---	0.00	30.366 
17:50	37.5	37.5	37.5	67	27.6	0	0	---	0.00	30.366 
17:55	37.2	37.2	37.2	68	27.6	0	0	---	0.00	30.366 
18:00	36.8	36.8	36.8	69	27.6	0	0	---	0.00	30.372 
18:05	36.3	36.3	36.3	70	27.5	0	0	---	0.00	30.372 
18:10	36.0	36.0	36.0	70	27.2	0	0	---	0.00	30.372 
18:15	35.8	35.8	35.8	71	27.3	0	0	---	0.00	30.374 
18:20	35.3	35.3	35.3	72	27.2	0	0	---	0.00	30.374 
18:25	35.0	35.0	35.0	73	27.2	0	0	---	0.00	30.374 
18:30	34.7	34.7	34.7	74	27.3	0	0	---	0.00	30.375 
18:35	34.4	34.4	34.4	75	27.3	0	0	---	0.00	30.375 
18:40	34.3	34.3	34.3	76	27.5	0	0	---	0.00	30.375 
18:45	34.1	34.1	34.1	76	27.3	0	0	---	0.00	30.378 
18:50	33.8	33.8	33.8	76	27.1	0	0	---	0.00	30.378 
18:55	33.5	33.5	33.5	77	27.1	0	0	---	0.00	30.378 
19:00	33.2	33.2	33.2	77	26.8	0	0	---	0.00	30.378 
19:05	33.1	33.1	33.1	78	27.0	0	0	---	0.00	30.378 
19:10	32.8	32.8	32.8	79	27.0	0	0	---	0.00	30.378 
19:15	32.7	32.7	32.7	79	26.9	0	0	---	0.00	30.379 
19:20	32.4	32.4	32.4	80	26.9	0	0	---	0.00	30.379 
19:25	32.1	32.1	32.1	80	26.6	0	0	---	0.00	30.379 
19:30	31.9	31.9	31.9	81	26.7	0	0	---	0.00	30.384 
19:35	31.8	31.8	31.8	81	26.6	0	0	---	0.00	30.384 
19:40	31.6	31.6	31.6	82	26.7	0	0	---	0.00	30.384 
19:45	31.3	31.3	31.3	82	26.5	0	0	---	0.00	30.384 
19:50	31.2	31.2	31.2	82	26.4	0	0	---	0.00	30.384 
19:55	31.0	31.0	31.0	83	26.5	0	0	---	0.00	30.384 
20:00	30.9	30.9	30.9	83	26.4	0	0	---	0.00	30.389 
20:05	30.7	30.7	30.7	84	26.4	0	0	---	0.00	30.389 
20:10	30.7	30.7	30.7	84	26.4	0	0	---	0.00	30.389 
20:15	30.6	30.6	30.6	84	26.4	0	0	---	0.00	30.392 
20:20	30.6	30.6	30.6	84	26.4	0	0	---	0.00	30.392 
20:25	30.4	30.4	30.4	84	26.2	0	0	---	0.00	30.392 
20:30	30.3	30.3	30.3	85	26.3	0	0	---	0.00	30.392 
20:35	30.3	30.3	30.3	85	26.3	0	0	---	0.00	30.392 
20:40	30.1	30.1	30.1	85	26.1	0	0	---	0.00	30.392 
20:45	30.0	30.0	30.0	85	26.0	0	0	---	0.00	30.392 
20:50	29.7	29.7	29.7	85	25.8	0	0	---	0.00	30.392 
20:55	29.5	29.5	29.5	85	25.6	0	0	---	0.00	30.392 
21:00	29.4	29.4	29.4	85	25.5	0	0	---	0.00	30.395 
21:05	29.4	29.4	29.4	86	25.7	0	0	---	0.00	30.395 
21:10	29.4	29.4	29.4	86	25.7	0	0	---	0.00	30.395 
21:15	29.3	29.3	29.3	86	25.6	0	0	---	0.00	30.395 
21:20	29.3	29.3	29.3	86	25.6	0	0	---	0.00	30.395 
21:25	29.3	29.3	29.3	87	25.9	0	0	---	0.00	30.395 
21:30	29.1	29.1	29.1	87	25.7	0	0	---	0.00	30.392 
21:35	29.0	29.0	29.0	87	25.6	0	0	---	0.00	30.392 
21:40	28.8	28.8	28.8	87	25.4	0	0	---	0.00	30.392 
21:45	28.7	28.7	28.7	87	25.3	0	0	---	0.00	30.391 
21:50	28.5	28.5	28.5	87	25.1	0	0	---	0.00	30.391 
21:55	28.5	28.5	28.5	87	25.1	0	0	---	0.00	30.391 
22:00	28.4	28.4	28.4	87	25.0	0	0	---	0.00	30.393 
22:05	28.4	28.4	28.4	88	25.3	0	0	---	0.00	30.393 
22:10	28.2	28.2	28.2	88	25.1	0	0	---	0.00	30.393 
22:15	28.1	28.1	28.1	88	25.0	0	0	---	0.00	30.392 
22:20	28.1	28.1	28.1	88	25.0	0	0	---	0.00	30.392 
22:25	28.1	28.1	28.1	88	25.0	0	0	---	0.00	30.392 
22:30	28.1	28.1	28.1	88	25.0	0	0	---	0.00	30.393 
22:35	28.1	28.1	28.1	88	25.0	0	0	---	0.00	30.393 
22:40	28.1	28.1	28.1	88	25.0	0	0	---	0.00	30.393 
22:45	28.1	28.1	28.1	88	25.0	0	0	---	0.00	30.389 
22:50	27.9	27.9	27.9	88	24.8	0	0	---	0.00	30.389 
22:55	27.8	27.8	27.8	88	24.7	0	0	---	0.00	30.389 
23:00	27.6	27.6	27.6	89	24.8	0	0	---	0.00	30.390 
23:05	27.6	27.6	27.6	89	24.8	0	0	---	0.00	30.390 
23:10	27.6	27.6	27.6	89	24.8	0	0	---	0.00	30.390 
23:15	27.5	27.5	27.5	89	24.7	0	0	---	0.00	30.386 
23:20	27.2	27.2	27.2	88	24.1	0	0	---	0.00	30.386 
23:25	27.0	27.0	27.0	89	24.2	0	0	---	0.00	30.386 
23:30	26.9	26.9	26.9	89	24.1	0	0	---	0.00	30.388 
23:35	26.9	26.9	26.9	89	24.1	0	0	---	0.00	30.388 
23:40	26.7	26.7	26.7	89	23.9	0	0	---	0.00	30.388 
23:45	26.6	26.6	26.6	89	23.8	0	0	---	0.00	30.389 
23:50	26.6	26.6	26.6	89	23.8	0	0	---	0.00	30.389 
23:55	26.4	26.4	26.4	89	23.6	0	0	---	0.00	30.389 

CoCoRaHS
IN-AL-39
A2 Web Hosting
Creative Commons License
GoDaddy
search engine by freefind advanced

loaded 2018-11-15 14:06:12 • last modified 2010-11-18 10:43:29
Privacy PolicyDisclaimer
• wx.awcolley.com is powered by PmWiki v.2002016 •
• all content (unless otherwise noted) © 2018 A W Colley